Clarkfield, Minnesota
Current Conditions -  °F | °C
As of 10:53 AM on Friday 26 Dec 2014 (Local Time) from KGDB Reporting Station
Overcast Overcast  
Wind Chill: 18°   Ceiling: 1100
Heat Index: 28°   Visibility: 10mi
Dew Point: 25°   Wind: 12mph
Humidity: 90%   Direction: 330°NNW
Pressure: 30.1"   Gusts: NA
Location:  44.79°N, 95.81°W
Report Text: KGDB 261653Z AUTO 33010KT 10SM BKN011 OVC025 M02/M04 A3010 RMK AO2 T10241039
Loading
Personal Weather Stations






























Interactive Weather Map New forecast layout! Learn more

10-Day Weather Forecast

Advertisements
Track Severe Weather on mobile